Aérodrome :
LOGIN :

S'inscrire | Disclaimer

   EN    FR    IT 

 










Légende :    VFR   VFR Marginal   IFR   IFR Intensif   IFR Très Intensif
Visi : 
Plafond : 
>= 8 km
>= 3000ft
5 à 8 km
1000 à 3000 ft
1500m à 5 km
500 à 1000 ft
800 à 1500m
200 à 500 ft
< 800m
< 200 ft
Symboles :   Orages  Brouillard  Fortes neiges  Fortes précipitations  Vent > 20 kt
SIGMETs :   Divers  Orages  Givrage  Turbulence  Onde Orograph.  Cendres Volcan.







- Altitude de l'aérodrome : -11 ft
- Code IATA : AMS


EHAM - Amsterdam Schiphol

DERNIER METAR :
  • 221755Z 29013KT 9999 FEW013 07/05 Q1013 NOSIG

METARs EXPIRÉS :
  • 221725Z 29012KT 260V320 9999 FEW013 07/05 Q1012 NOSIG
  • 221655Z 29012KT 250V320 9999 FEW013 07/05 Q1012 NOSIG
  • 221625Z 29013KT 260V320 9999 FEW013 07/05 Q1011 NOSIG
  • 221555Z 29011KT 260V330 9999 FEW013 07/05 Q1011 NOSIG
  • 221525Z 29012KT 260V330 9999 FEW012 07/05 Q1010 NOSIG

TAF TAF EHAM
Valide du 22 à 18h jusqu'au 24 à 00h UTC


221713Z 2218/2324 29012KT 9999 FEW020 BKN045
BECMG 2302/2305 20008KT
PROB30 2303/2309 6000 BKN010
BECMG 2311/2314 21018KT 6000 RADZ BKN012
BECMG 2314/2317 4000 BR -DZ BKN006
PROB30
TEMPO 2317/2321 2000 DZ BKN004
BECMG 2319/2322 6000 NSW BKN010
PROB30
TEMPO 2322/2324 4000 -DZ BKN006
Pas de NOTAMs connus pour ce terrain.



MET'MAP, la Météo Aéronautique d'un coup d'oeil ! - Copyright ORBIFLY Décembre 2007 - Disclaimer

ORBIFLY MET'MAP TEAM :

Programmation & Développement : Alexandra Zaïnal
Conception & Développement : Baudouin d'Aumeries
Co-Programmation & Développement : Marc-Olivier Méhu
Soutien technique & logistique : Manuel Goepfert

Contact : metmap@orbifly.com




SOURCES & CREDITS :

   NOAA